sensor_id;sensor_type;location;lat;lon;timestamp;P1;durP1;ratioP1;P2;durP2;ratioP2
44276;SDS011;29973;43.742;1.236;2023-04-22T00:01:50;14.23;;;4.22;;
44276;SDS011;29973;43.742;1.236;2023-04-22T00:04:16;13.88;;;4.65;;
44276;SDS011;29973;43.742;1.236;2023-04-22T00:06:42;9.20;;;4.45;;
44276;SDS011;29973;43.742;1.236;2023-04-22T00:09:09;13.43;;;4.68;;
44276;SDS011;29973;43.742;1.236;2023-04-22T00:11:35;12.10;;;5.25;;
44276;SDS011;29973;43.742;1.236;2023-04-22T00:14:00;12.43;;;4.40;;
44276;SDS011;29973;43.742;1.236;2023-04-22T00:16:26;12.27;;;4.97;;
44276;SDS011;29973;43.742;1.236;2023-04-22T00:18:52;16.15;;;3.97;;
44276;SDS011;29973;43.742;1.236;2023-04-22T00:21:17;13.45;;;5.07;;
44276;SDS011;29973;43.742;1.236;2023-04-22T00:23:43;16.95;;;4.75;;
44276;SDS011;29973;43.742;1.236;2023-04-22T00:26:09;14.15;;;4.40;;
44276;SDS011;29973;43.742;1.236;2023-04-22T00:28:35;16.73;;;4.45;;
44276;SDS011;29973;43.742;1.236;2023-04-22T00:31:01;14.13;;;4.50;;
44276;SDS011;29973;43.742;1.236;2023-04-22T00:33:28;16.92;;;4.75;;
44276;SDS011;29973;43.742;1.236;2023-04-22T00:35:54;21.35;;;5.60;;
44276;SDS011;29973;43.742;1.236;2023-04-22T00:38:20;17.52;;;5.20;;
44276;SDS011;29973;43.742;1.236;2023-04-22T00:40:46;13.75;;;4.45;;
44276;SDS011;29973;43.742;1.236;2023-04-22T00:43:12;18.58;;;5.32;;
44276;SDS011;29973;43.742;1.236;2023-04-22T00:45:38;25.38;;;5.22;;
44276;SDS011;29973;43.742;1.236;2023-04-22T00:48:04;12.93;;;4.80;;
44276;SDS011;29973;43.742;1.236;2023-04-22T00:50:29;19.48;;;4.60;;
44276;SDS011;29973;43.742;1.236;2023-04-22T00:52:55;16.50;;;5.18;;
44276;SDS011;29973;43.742;1.236;2023-04-22T00:55:21;18.13;;;4.28;;
44276;SDS011;29973;43.742;1.236;2023-04-22T00:57:47;20.38;;;5.30;;
44276;SDS011;29973;43.742;1.236;2023-04-22T01:00:14;26.33;;;5.88;;
44276;SDS011;29973;43.742;1.236;2023-04-22T01:02:40;15.95;;;5.00;;
44276;SDS011;29973;43.742;1.236;2023-04-22T01:05:06;18.60;;;5.25;;
44276;SDS011;29973;43.742;1.236;2023-04-22T01:07:35;11.23;;;4.32;;
44276;SDS011;29973;43.742;1.236;2023-04-22T01:10:01;13.77;;;4.72;;
44276;SDS011;29973;43.742;1.236;2023-04-22T01:12:28;11.88;;;4.68;;
44276;SDS011;29973;43.742;1.236;2023-04-22T01:14:54;11.07;;;5.18;;
44276;SDS011;29973;43.742;1.236;2023-04-22T01:17:19;22.00;;;5.10;;
44276;SDS011;29973;43.742;1.236;2023-04-22T01:19:46;15.38;;;5.07;;
44276;SDS011;29973;43.742;1.236;2023-04-22T01:22:13;14.27;;;4.95;;
44276;SDS011;29973;43.742;1.236;2023-04-22T01:24:39;16.80;;;5.70;;
44276;SDS011;29973;43.742;1.236;2023-04-22T01:27:05;20.20;;;5.70;;
44276;SDS011;29973;43.742;1.236;2023-04-22T01:29:31;19.63;;;5.15;;
44276;SDS011;29973;43.742;1.236;2023-04-22T01:31:57;23.85;;;5.22;;
44276;SDS011;29973;43.742;1.236;2023-04-22T01:34:23;21.33;;;5.80;;
44276;SDS011;29973;43.742;1.236;2023-04-22T01:36:49;16.75;;;5.15;;
44276;SDS011;29973;43.742;1.236;2023-04-22T01:39:15;21.20;;;5.68;;
44276;SDS011;29973;43.742;1.236;2023-04-22T01:41:41;23.27;;;6.35;;
44276;SDS011;29973;43.742;1.236;2023-04-22T01:44:07;11.45;;;4.75;;
44276;SDS011;29973;43.742;1.236;2023-04-22T01:46:33;17.33;;;5.25;;
44276;SDS011;29973;43.742;1.236;2023-04-22T01:48:58;16.70;;;5.10;;
44276;SDS011;29973;43.742;1.236;2023-04-22T01:51:24;11.27;;;5.28;;
44276;SDS011;29973;43.742;1.236;2023-04-22T01:53:50;11.70;;;4.30;;
44276;SDS011;29973;43.742;1.236;2023-04-22T01:56:16;13.73;;;5.53;;
44276;SDS011;29973;43.742;1.236;2023-04-22T01:58:42;19.33;;;5.97;;
44276;SDS011;29973;43.742;1.236;2023-04-22T02:01:08;18.27;;;5.70;;
44276;SDS011;29973;43.742;1.236;2023-04-22T02:03:35;13.73;;;5.53;;
44276;SDS011;29973;43.742;1.236;2023-04-22T02:06:00;13.30;;;5.13;;
44276;SDS011;29973;43.742;1.236;2023-04-22T02:08:26;19.27;;;5.25;;
44276;SDS011;29973;43.742;1.236;2023-04-22T02:10:52;10.18;;;5.50;;
44276;SDS011;29973;43.742;1.236;2023-04-22T02:13:18;10.43;;;5.18;;
44276;SDS011;29973;43.742;1.236;2023-04-22T02:15:44;11.30;;;5.45;;
44276;SDS011;29973;43.742;1.236;2023-04-22T02:18:09;11.57;;;4.78;;
44276;SDS011;29973;43.742;1.236;2023-04-22T02:20:35;9.95;;;5.70;;
44276;SDS011;29973;43.742;1.236;2023-04-22T02:23:01;15.73;;;5.20;;
44276;SDS011;29973;43.742;1.236;2023-04-22T02:25:27;14.18;;;4.95;;
44276;SDS011;29973;43.742;1.236;2023-04-22T02:27:53;16.15;;;6.32;;
44276;SDS011;29973;43.742;1.236;2023-04-22T02:30:19;14.77;;;6.55;;
44276;SDS011;29973;43.742;1.236;2023-04-22T02:32:45;12.35;;;5.30;;
44276;SDS011;29973;43.742;1.236;2023-04-22T02:35:11;17.90;;;6.07;;
44276;SDS011;29973;43.742;1.236;2023-04-22T02:37:37;11.30;;;5.30;;
44276;SDS011;29973;43.742;1.236;2023-04-22T02:40:03;11.63;;;5.55;;
44276;SDS011;29973;43.742;1.236;2023-04-22T02:42:31;12.95;;;5.80;;
44276;SDS011;29973;43.742;1.236;2023-04-22T02:44:57;11.25;;;5.22;;
44276;SDS011;29973;43.742;1.236;2023-04-22T02:47:22;13.38;;;6.38;;
44276;SDS011;29973;43.742;1.236;2023-04-22T02:49:48;14.15;;;6.07;;
44276;SDS011;29973;43.742;1.236;2023-04-22T02:52:14;12.77;;;5.63;;
44276;SDS011;29973;43.742;1.236;2023-04-22T02:54:39;16.45;;;5.57;;
44276;SDS011;29973;43.742;1.236;2023-04-22T02:57:05;17.95;;;6.05;;
44276;SDS011;29973;43.742;1.236;2023-04-22T02:59:31;11.00;;;5.05;;
44276;SDS011;29973;43.742;1.236;2023-04-22T03:01:58;14.98;;;5.65;;
44276;SDS011;29973;43.742;1.236;2023-04-22T03:04:24;21.60;;;6.50;;
44276;SDS011;29973;43.742;1.236;2023-04-22T03:06:50;12.15;;;5.93;;
44276;SDS011;29973;43.742;1.236;2023-04-22T03:09:16;23.25;;;6.45;;
44276;SDS011;29973;43.742;1.236;2023-04-22T03:11:42;21.85;;;7.22;;
44276;SDS011;29973;43.742;1.236;2023-04-22T03:14:07;17.13;;;7.07;;
44276;SDS011;29973;43.742;1.236;2023-04-22T03:16:33;14.30;;;5.53;;
44276;SDS011;29973;43.742;1.236;2023-04-22T03:18:59;16.42;;;6.45;;
44276;SDS011;29973;43.742;1.236;2023-04-22T03:21:25;18.38;;;6.40;;
44276;SDS011;29973;43.742;1.236;2023-04-22T03:23:52;17.38;;;6.03;;
44276;SDS011;29973;43.742;1.236;2023-04-22T03:26:18;21.23;;;6.43;;
44276;SDS011;29973;43.742;1.236;2023-04-22T03:28:44;12.93;;;6.07;;
44276;SDS011;29973;43.742;1.236;2023-04-22T03:31:09;23.48;;;6.53;;
44276;SDS011;29973;43.742;1.236;2023-04-22T03:33:35;16.63;;;5.80;;
44276;SDS011;29973;43.742;1.236;2023-04-22T03:36:01;16.25;;;6.05;;
44276;SDS011;29973;43.742;1.236;2023-04-22T03:38:27;22.73;;;6.20;;
44276;SDS011;29973;43.742;1.236;2023-04-22T03:40:52;25.90;;;7.13;;
44276;SDS011;29973;43.742;1.236;2023-04-22T03:43:18;25.08;;;7.28;;
44276;SDS011;29973;43.742;1.236;2023-04-22T03:45:43;28.77;;;7.45;;
44276;SDS011;29973;43.742;1.236;2023-04-22T03:48:09;25.63;;;6.20;;
44276;SDS011;29973;43.742;1.236;2023-04-22T03:50:35;31.15;;;6.68;;
44276;SDS011;29973;43.742;1.236;2023-04-22T03:53:01;20.00;;;6.05;;
44276;SDS011;29973;43.742;1.236;2023-04-22T03:55:26;29.00;;;7.82;;
44276;SDS011;29973;43.742;1.236;2023-04-22T03:57:52;30.00;;;7.32;;
44276;SDS011;29973;43.742;1.236;2023-04-22T04:00:18;20.95;;;6.18;;
44276;SDS011;29973;43.742;1.236;2023-04-22T04:02:43;25.88;;;6.35;;
44276;SDS011;29973;43.742;1.236;2023-04-22T04:05:09;28.05;;;7.22;;
44276;SDS011;29973;43.742;1.236;2023-04-22T04:07:35;22.05;;;6.43;;
44276;SDS011;29973;43.742;1.236;2023-04-22T04:10:02;18.30;;;5.75;;
44276;SDS011;29973;43.742;1.236;2023-04-22T04:12:28;20.25;;;6.32;;
44276;SDS011;29973;43.742;1.236;2023-04-22T04:14:54;32.03;;;6.47;;
44276;SDS011;29973;43.742;1.236;2023-04-22T04:17:19;26.08;;;7.15;;
44276;SDS011;29973;43.742;1.236;2023-04-22T04:19:49;25.77;;;7.40;;
44276;SDS011;29973;43.742;1.236;2023-04-22T04:22:18;25.27;;;7.85;;
44276;SDS011;29973;43.742;1.236;2023-04-22T04:24:44;23.73;;;7.35;;
44276;SDS011;29973;43.742;1.236;2023-04-22T04:27:11;25.23;;;7.38;;
44276;SDS011;29973;43.742;1.236;2023-04-22T04:29:37;25.17;;;7.20;;
44276;SDS011;29973;43.742;1.236;2023-04-22T04:32:05;29.13;;;8.15;;
44276;SDS011;29973;43.742;1.236;2023-04-22T04:34:34;33.80;;;7.00;;
44276;SDS011;29973;43.742;1.236;2023-04-22T04:37:01;34.47;;;7.32;;
44276;SDS011;29973;43.742;1.236;2023-04-22T04:39:27;22.92;;;6.68;;
44276;SDS011;29973;43.742;1.236;2023-04-22T04:41:53;26.63;;;6.07;;
44276;SDS011;29973;43.742;1.236;2023-04-22T04:44:20;21.10;;;6.18;;
44276;SDS011;29973;43.742;1.236;2023-04-22T04:46:46;22.90;;;6.45;;
44276;SDS011;29973;43.742;1.236;2023-04-22T04:49:12;16.60;;;7.18;;
44276;SDS011;29973;43.742;1.236;2023-04-22T04:51:38;23.00;;;6.88;;
44276;SDS011;29973;43.742;1.236;2023-04-22T04:54:04;27.90;;;6.45;;
44276;SDS011;29973;43.742;1.236;2023-04-22T04:56:29;21.45;;;6.35;;
44276;SDS011;29973;43.742;1.236;2023-04-22T04:58:55;22.75;;;7.00;;
44276;SDS011;29973;43.742;1.236;2023-04-22T05:01:21;22.60;;;6.97;;
44276;SDS011;29973;43.742;1.236;2023-04-22T05:03:47;19.13;;;6.80;;
44276;SDS011;29973;43.742;1.236;2023-04-22T05:06:13;25.98;;;7.28;;
44276;SDS011;29973;43.742;1.236;2023-04-22T05:08:39;24.65;;;6.88;;
44276;SDS011;29973;43.742;1.236;2023-04-22T05:11:04;19.38;;;6.43;;
44276;SDS011;29973;43.742;1.236;2023-04-22T05:13:30;21.95;;;6.53;;
44276;SDS011;29973;43.742;1.236;2023-04-22T05:15:56;23.95;;;6.95;;
44276;SDS011;29973;43.742;1.236;2023-04-22T05:18:21;23.00;;;6.50;;
44276;SDS011;29973;43.742;1.236;2023-04-22T05:20:47;16.38;;;6.50;;
44276;SDS011;29973;43.742;1.236;2023-04-22T05:23:13;29.02;;;7.50;;
44276;SDS011;29973;43.742;1.236;2023-04-22T05:25:39;19.42;;;6.80;;
44276;SDS011;29973;43.742;1.236;2023-04-22T05:28:04;26.33;;;7.30;;
44276;SDS011;29973;43.742;1.236;2023-04-22T05:30:30;20.55;;;7.25;;
44276;SDS011;29973;43.742;1.236;2023-04-22T05:32:56;25.88;;;6.35;;
44276;SDS011;29973;43.742;1.236;2023-04-22T05:35:22;24.98;;;6.57;;
44276;SDS011;29973;43.742;1.236;2023-04-22T05:37:47;20.75;;;7.18;;
44276;SDS011;29973;43.742;1.236;2023-04-22T05:40:13;26.42;;;6.68;;
44276;SDS011;29973;43.742;1.236;2023-04-22T05:42:39;19.27;;;7.15;;
44276;SDS011;29973;43.742;1.236;2023-04-22T05:45:05;25.35;;;6.88;;
44276;SDS011;29973;43.742;1.236;2023-04-22T05:47:31;20.08;;;7.22;;
44276;SDS011;29973;43.742;1.236;2023-04-22T05:49:56;15.18;;;6.55;;
44276;SDS011;29973;43.742;1.236;2023-04-22T05:52:22;20.13;;;7.18;;
44276;SDS011;29973;43.742;1.236;2023-04-22T05:54:48;24.10;;;6.72;;
44276;SDS011;29973;43.742;1.236;2023-04-22T05:57:13;24.30;;;7.32;;
44276;SDS011;29973;43.742;1.236;2023-04-22T05:59:40;15.30;;;6.47;;
44276;SDS011;29973;43.742;1.236;2023-04-22T06:02:06;22.73;;;7.03;;
44276;SDS011;29973;43.742;1.236;2023-04-22T06:04:32;28.50;;;8.32;;
44276;SDS011;29973;43.742;1.236;2023-04-22T06:06:58;21.60;;;7.45;;
44276;SDS011;29973;43.742;1.236;2023-04-22T06:09:24;18.58;;;7.18;;
44276;SDS011;29973;43.742;1.236;2023-04-22T06:11:49;21.00;;;7.53;;
44276;SDS011;29973;43.742;1.236;2023-04-22T06:14:15;23.77;;;7.93;;
44276;SDS011;29973;43.742;1.236;2023-04-22T06:16:41;22.63;;;6.18;;
44276;SDS011;29973;43.742;1.236;2023-04-22T06:19:06;21.08;;;6.95;;
44276;SDS011;29973;43.742;1.236;2023-04-22T06:21:32;16.85;;;6.60;;
44276;SDS011;29973;43.742;1.236;2023-04-22T06:24:01;25.15;;;7.32;;
44276;SDS011;29973;43.742;1.236;2023-04-22T06:26:29;15.20;;;6.60;;
44276;SDS011;29973;43.742;1.236;2023-04-22T06:28:55;23.17;;;7.50;;
44276;SDS011;29973;43.742;1.236;2023-04-22T06:31:20;13.13;;;6.72;;
44276;SDS011;29973;43.742;1.236;2023-04-22T06:33:46;21.58;;;7.90;;
44276;SDS011;29973;43.742;1.236;2023-04-22T06:36:12;19.95;;;6.65;;
44276;SDS011;29973;43.742;1.236;2023-04-22T06:38:38;24.67;;;7.18;;
44276;SDS011;29973;43.742;1.236;2023-04-22T06:41:04;20.33;;;6.63;;
44276;SDS011;29973;43.742;1.236;2023-04-22T06:43:30;26.83;;;7.50;;
44276;SDS011;29973;43.742;1.236;2023-04-22T06:45:56;17.38;;;6.53;;
44276;SDS011;29973;43.742;1.236;2023-04-22T06:48:21;24.67;;;7.70;;
44276;SDS011;29973;43.742;1.236;2023-04-22T06:50:48;23.83;;;7.55;;
44276;SDS011;29973;43.742;1.236;2023-04-22T06:53:13;22.17;;;7.55;;
44276;SDS011;29973;43.742;1.236;2023-04-22T06:55:39;28.33;;;9.30;;
44276;SDS011;29973;43.742;1.236;2023-04-22T06:58:05;23.27;;;8.80;;
44276;SDS011;29973;43.742;1.236;2023-04-22T07:00:31;28.60;;;9.00;;
44276;SDS011;29973;43.742;1.236;2023-04-22T07:02:56;23.92;;;8.88;;
44276;SDS011;29973;43.742;1.236;2023-04-22T07:05:22;29.73;;;8.35;;
44276;SDS011;29973;43.742;1.236;2023-04-22T07:07:48;25.75;;;8.63;;
44276;SDS011;29973;43.742;1.236;2023-04-22T07:10:14;23.05;;;8.27;;
44276;SDS011;29973;43.742;1.236;2023-04-22T07:12:47;24.80;;;8.02;;
44276;SDS011;29973;43.742;1.236;2023-04-22T07:15:13;22.08;;;8.60;;
44276;SDS011;29973;43.742;1.236;2023-04-22T07:17:38;24.40;;;8.68;;
44276;SDS011;29973;43.742;1.236;2023-04-22T07:20:04;30.67;;;8.98;;
44276;SDS011;29973;43.742;1.236;2023-04-22T07:22:31;24.35;;;9.30;;
44276;SDS011;29973;43.742;1.236;2023-04-22T07:24:56;18.40;;;8.00;;
44276;SDS011;29973;43.742;1.236;2023-04-22T07:27:22;22.83;;;8.48;;
44276;SDS011;29973;43.742;1.236;2023-04-22T07:29:48;25.52;;;9.30;;
44276;SDS011;29973;43.742;1.236;2023-04-22T07:32:14;23.02;;;9.48;;
44276;SDS011;29973;43.742;1.236;2023-04-22T07:34:40;23.67;;;8.77;;
44276;SDS011;29973;43.742;1.236;2023-04-22T07:37:05;18.58;;;8.60;;
44276;SDS011;29973;43.742;1.236;2023-04-22T07:39:33;28.75;;;8.63;;
44276;SDS011;29973;43.742;1.236;2023-04-22T07:41:59;24.92;;;8.63;;
44276;SDS011;29973;43.742;1.236;2023-04-22T07:44:24;20.58;;;7.68;;
44276;SDS011;29973;43.742;1.236;2023-04-22T07:46:50;24.70;;;8.15;;
44276;SDS011;29973;43.742;1.236;2023-04-22T07:49:16;21.20;;;7.72;;
44276;SDS011;29973;43.742;1.236;2023-04-22T07:51:45;18.33;;;8.35;;
44276;SDS011;29973;43.742;1.236;2023-04-22T07:54:11;20.20;;;8.13;;
44276;SDS011;29973;43.742;1.236;2023-04-22T07:56:37;22.00;;;7.88;;
44276;SDS011;29973;43.742;1.236;2023-04-22T07:59:02;29.17;;;8.27;;
44276;SDS011;29973;43.742;1.236;2023-04-22T08:01:28;20.73;;;8.60;;
44276;SDS011;29973;43.742;1.236;2023-04-22T08:03:54;18.08;;;8.43;;
44276;SDS011;29973;43.742;1.236;2023-04-22T08:06:20;23.48;;;8.43;;
44276;SDS011;29973;43.742;1.236;2023-04-22T08:08:46;28.63;;;7.90;;
44276;SDS011;29973;43.742;1.236;2023-04-22T08:11:12;29.05;;;9.13;;
44276;SDS011;29973;43.742;1.236;2023-04-22T08:13:37;18.65;;;7.28;;
44276;SDS011;29973;43.742;1.236;2023-04-22T08:16:03;15.85;;;6.85;;
44276;SDS011;29973;43.742;1.236;2023-04-22T08:18:30;18.15;;;6.80;;
44276;SDS011;29973;43.742;1.236;2023-04-22T08:20:56;13.30;;;6.47;;
44276;SDS011;29973;43.742;1.236;2023-04-22T08:23:22;14.35;;;6.85;;
44276;SDS011;29973;43.742;1.236;2023-04-22T08:25:47;20.90;;;7.65;;
44276;SDS011;29973;43.742;1.236;2023-04-22T08:28:14;20.42;;;6.70;;
44276;SDS011;29973;43.742;1.236;2023-04-22T08:30:40;17.50;;;6.13;;
44276;SDS011;29973;43.742;1.236;2023-04-22T08:33:05;17.05;;;6.88;;
44276;SDS011;29973;43.742;1.236;2023-04-22T08:35:33;18.42;;;7.00;;
44276;SDS011;29973;43.742;1.236;2023-04-22T08:37:59;19.25;;;6.63;;
44276;SDS011;29973;43.742;1.236;2023-04-22T08:40:25;14.13;;;6.00;;
44276;SDS011;29973;43.742;1.236;2023-04-22T08:42:52;14.00;;;6.93;;
44276;SDS011;29973;43.742;1.236;2023-04-22T08:45:19;18.85;;;6.68;;
44276;SDS011;29973;43.742;1.236;2023-04-22T08:47:47;18.80;;;6.78;;
44276;SDS011;29973;43.742;1.236;2023-04-22T08:50:13;19.67;;;6.03;;
44276;SDS011;29973;43.742;1.236;2023-04-22T08:52:42;23.48;;;6.90;;
44276;SDS011;29973;43.742;1.236;2023-04-22T08:55:08;14.88;;;5.88;;
44276;SDS011;29973;43.742;1.236;2023-04-22T08:57:37;10.65;;;5.90;;
44276;SDS011;29973;43.742;1.236;2023-04-22T09:00:06;19.63;;;7.18;;
44276;SDS011;29973;43.742;1.236;2023-04-22T09:02:33;14.98;;;7.18;;
44276;SDS011;29973;43.742;1.236;2023-04-22T09:05:01;11.10;;;5.90;;
44276;SDS011;29973;43.742;1.236;2023-04-22T09:07:30;12.00;;;6.15;;
44276;SDS011;29973;43.742;1.236;2023-04-22T09:09:57;16.05;;;6.40;;
44276;SDS011;29973;43.742;1.236;2023-04-22T09:12:26;14.63;;;6.38;;
44276;SDS011;29973;43.742;1.236;2023-04-22T09:14:52;14.48;;;6.50;;
44276;SDS011;29973;43.742;1.236;2023-04-22T09:17:28;20.38;;;6.15;;
44276;SDS011;29973;43.742;1.236;2023-04-22T09:19:59;17.42;;;6.38;;
44276;SDS011;29973;43.742;1.236;2023-04-22T09:22:26;18.33;;;6.15;;
44276;SDS011;29973;43.742;1.236;2023-04-22T09:25:02;22.35;;;7.18;;
44276;SDS011;29973;43.742;1.236;2023-04-22T09:27:28;13.90;;;5.70;;
44276;SDS011;29973;43.742;1.236;2023-04-22T09:29:54;16.08;;;6.28;;
44276;SDS011;29973;43.742;1.236;2023-04-22T09:32:22;14.55;;;6.03;;
44276;SDS011;29973;43.742;1.236;2023-04-22T09:34:53;20.23;;;6.90;;
44276;SDS011;29973;43.742;1.236;2023-04-22T09:37:25;15.77;;;6.72;;
44276;SDS011;29973;43.742;1.236;2023-04-22T09:39:51;12.25;;;6.07;;
44276;SDS011;29973;43.742;1.236;2023-04-22T09:42:17;17.23;;;5.35;;
44276;SDS011;29973;43.742;1.236;2023-04-22T09:44:47;15.50;;;5.93;;
44276;SDS011;29973;43.742;1.236;2023-04-22T09:47:16;14.63;;;5.70;;
44276;SDS011;29973;43.742;1.236;2023-04-22T09:49:47;17.65;;;5.55;;
44276;SDS011;29973;43.742;1.236;2023-04-22T09:52:23;19.40;;;6.00;;
44276;SDS011;29973;43.742;1.236;2023-04-22T09:54:51;17.23;;;5.63;;
44276;SDS011;29973;43.742;1.236;2023-04-22T09:57:18;17.67;;;4.95;;
44276;SDS011;29973;43.742;1.236;2023-04-22T09:59:51;16.00;;;5.72;;
44276;SDS011;29973;43.742;1.236;2023-04-22T10:02:17;14.57;;;6.25;;
44276;SDS011;29973;43.742;1.236;2023-04-22T10:04:43;17.25;;;5.22;;
44276;SDS011;29973;43.742;1.236;2023-04-22T10:07:09;12.85;;;6.15;;
44276;SDS011;29973;43.742;1.236;2023-04-22T10:09:35;15.00;;;6.40;;
44276;SDS011;29973;43.742;1.236;2023-04-22T10:12:00;16.83;;;5.68;;
44276;SDS011;29973;43.742;1.236;2023-04-22T10:14:27;14.43;;;6.32;;
44276;SDS011;29973;43.742;1.236;2023-04-22T10:16:59;16.60;;;5.45;;
44276;SDS011;29973;43.742;1.236;2023-04-22T10:19:26;13.35;;;5.65;;
44276;SDS011;29973;43.742;1.236;2023-04-22T10:21:57;16.23;;;5.57;;
44276;SDS011;29973;43.742;1.236;2023-04-22T10:27:02;15.82;;;5.50;;
44276;SDS011;29973;43.742;1.236;2023-04-22T10:29:34;16.02;;;5.70;;
44276;SDS011;29973;43.742;1.236;2023-04-22T10:35:05;19.52;;;5.75;;
44276;SDS011;29973;43.742;1.236;2023-04-22T10:37:35;11.45;;;4.97;;
44276;SDS011;29973;43.742;1.236;2023-04-22T10:40:05;18.83;;;5.32;;
44276;SDS011;29973;43.742;1.236;2023-04-22T10:42:33;14.80;;;5.55;;
44276;SDS011;29973;43.742;1.236;2023-04-22T10:45:01;13.23;;;5.60;;
44276;SDS011;29973;43.742;1.236;2023-04-22T10:47:29;17.70;;;6.25;;
44276;SDS011;29973;43.742;1.236;2023-04-22T10:50:13;10.32;;;5.57;;
44276;SDS011;29973;43.742;1.236;2023-04-22T10:52:41;13.13;;;5.15;;
44276;SDS011;29973;43.742;1.236;2023-04-22T10:55:08;14.05;;;5.60;;
44276;SDS011;29973;43.742;1.236;2023-04-22T10:57:40;15.60;;;5.38;;
44276;SDS011;29973;43.742;1.236;2023-04-22T11:02:53;13.63;;;5.82;;
44276;SDS011;29973;43.742;1.236;2023-04-22T11:05:23;10.77;;;5.30;;
44276;SDS011;29973;43.742;1.236;2023-04-22T11:07:54;11.00;;;5.10;;
44276;SDS011;29973;43.742;1.236;2023-04-22T11:10:30;15.15;;;5.53;;
44276;SDS011;29973;43.742;1.236;2023-04-22T11:12:56;17.23;;;6.07;;
44276;SDS011;29973;43.742;1.236;2023-04-22T11:15:22;18.52;;;6.43;;
44276;SDS011;29973;43.742;1.236;2023-04-22T11:17:51;12.73;;;5.93;;
44276;SDS011;29973;43.742;1.236;2023-04-22T11:20:18;15.18;;;5.60;;
44276;SDS011;29973;43.742;1.236;2023-04-22T11:22:45;11.57;;;6.13;;
44276;SDS011;29973;43.742;1.236;2023-04-22T11:25:12;21.17;;;5.68;;
44276;SDS011;29973;43.742;1.236;2023-04-22T11:27:39;9.70;;;5.50;;
44276;SDS011;29973;43.742;1.236;2023-04-22T11:30:11;15.52;;;5.80;;
44276;SDS011;29973;43.742;1.236;2023-04-22T11:32:42;21.77;;;5.95;;
44276;SDS011;29973;43.742;1.236;2023-04-22T11:35:20;13.48;;;5.45;;
44276;SDS011;29973;43.742;1.236;2023-04-22T11:40:34;13.32;;;4.95;;
44276;SDS011;29973;43.742;1.236;2023-04-22T11:43:06;13.13;;;5.53;;
44276;SDS011;29973;43.742;1.236;2023-04-22T11:45:34;12.00;;;6.07;;
44276;SDS011;29973;43.742;1.236;2023-04-22T11:48:00;14.43;;;6.05;;
44276;SDS011;29973;43.742;1.236;2023-04-22T11:50:31;20.08;;;5.85;;
44276;SDS011;29973;43.742;1.236;2023-04-22T11:53:02;14.05;;;6.05;;
44276;SDS011;29973;43.742;1.236;2023-04-22T12:03:17;13.25;;;5.57;;
44276;SDS011;29973;43.742;1.236;2023-04-22T12:05:45;13.18;;;6.22;;
44276;SDS011;29973;43.742;1.236;2023-04-22T12:08:19;16.45;;;5.88;;
44276;SDS011;29973;43.742;1.236;2023-04-22T12:15:47;17.38;;;6.07;;
44276;SDS011;29973;43.742;1.236;2023-04-22T12:18:13;12.98;;;6.80;;
44276;SDS011;29973;43.742;1.236;2023-04-22T12:20:39;15.35;;;6.15;;
44276;SDS011;29973;43.742;1.236;2023-04-22T12:23:12;20.13;;;5.85;;
44276;SDS011;29973;43.742;1.236;2023-04-22T12:25:39;17.20;;;6.53;;
44276;SDS011;29973;43.742;1.236;2023-04-22T12:28:05;19.45;;;5.95;;
44276;SDS011;29973;43.742;1.236;2023-04-22T12:30:31;10.40;;;6.00;;
44276;SDS011;29973;43.742;1.236;2023-04-22T12:32:57;23.05;;;7.82;;
44276;SDS011;29973;43.742;1.236;2023-04-22T12:35:22;14.43;;;6.32;;
44276;SDS011;29973;43.742;1.236;2023-04-22T12:37:48;14.02;;;6.15;;
44276;SDS011;29973;43.742;1.236;2023-04-22T12:40:14;12.02;;;5.90;;
44276;SDS011;29973;43.742;1.236;2023-04-22T12:42:40;14.50;;;6.72;;
44276;SDS011;29973;43.742;1.236;2023-04-22T12:45:05;17.45;;;7.85;;
44276;SDS011;29973;43.742;1.236;2023-04-22T12:47:33;22.00;;;10.00;;
44276;SDS011;29973;43.742;1.236;2023-04-22T12:49:58;16.13;;;9.13;;
44276;SDS011;29973;43.742;1.236;2023-04-22T12:52:25;18.92;;;9.18;;
44276;SDS011;29973;43.742;1.236;2023-04-22T12:54:51;21.77;;;12.38;;
44276;SDS011;29973;43.742;1.236;2023-04-22T12:57:16;16.00;;;6.88;;
44276;SDS011;29973;43.742;1.236;2023-04-22T12:59:42;14.63;;;6.45;;
44276;SDS011;29973;43.742;1.236;2023-04-22T13:02:11;12.55;;;7.00;;
44276;SDS011;29973;43.742;1.236;2023-04-22T13:04:36;15.50;;;7.35;;
44276;SDS011;29973;43.742;1.236;2023-04-22T13:07:02;15.10;;;7.63;;
44276;SDS011;29973;43.742;1.236;2023-04-22T13:09:28;21.42;;;8.05;;
44276;SDS011;29973;43.742;1.236;2023-04-22T13:11:53;17.83;;;8.30;;
44276;SDS011;29973;43.742;1.236;2023-04-22T13:14:19;18.73;;;8.13;;
44276;SDS011;29973;43.742;1.236;2023-04-22T13:16:45;18.73;;;9.07;;
44276;SDS011;29973;43.742;1.236;2023-04-22T13:19:11;14.35;;;8.40;;
44276;SDS011;29973;43.742;1.236;2023-04-22T13:21:37;17.30;;;8.98;;
44276;SDS011;29973;43.742;1.236;2023-04-22T13:24:02;19.90;;;8.40;;
44276;SDS011;29973;43.742;1.236;2023-04-22T13:26:28;16.42;;;8.30;;
44276;SDS011;29973;43.742;1.236;2023-04-22T13:28:54;18.38;;;9.13;;
44276;SDS011;29973;43.742;1.236;2023-04-22T13:31:20;21.48;;;9.63;;
44276;SDS011;29973;43.742;1.236;2023-04-22T13:33:46;15.27;;;8.60;;
44276;SDS011;29973;43.742;1.236;2023-04-22T13:36:11;16.67;;;9.70;;
44276;SDS011;29973;43.742;1.236;2023-04-22T13:38:37;23.55;;;10.65;;
44276;SDS011;29973;43.742;1.236;2023-04-22T13:41:03;20.95;;;10.93;;
44276;SDS011;29973;43.742;1.236;2023-04-22T13:43:29;20.52;;;9.45;;
44276;SDS011;29973;43.742;1.236;2023-04-22T13:45:55;19.23;;;8.65;;
44276;SDS011;29973;43.742;1.236;2023-04-22T13:48:20;14.20;;;7.85;;
44276;SDS011;29973;43.742;1.236;2023-04-22T13:50:46;20.40;;;9.90;;
44276;SDS011;29973;43.742;1.236;2023-04-22T13:53:12;30.38;;;15.40;;
44276;SDS011;29973;43.742;1.236;2023-04-22T13:55:38;32.58;;;18.13;;
44276;SDS011;29973;43.742;1.236;2023-04-22T13:58:04;38.88;;;16.38;;
44276;SDS011;29973;43.742;1.236;2023-04-22T14:00:31;35.25;;;16.35;;
44276;SDS011;29973;43.742;1.236;2023-04-22T14:02:57;22.33;;;11.18;;
44276;SDS011;29973;43.742;1.236;2023-04-22T14:05:23;27.83;;;11.70;;
44276;SDS011;29973;43.742;1.236;2023-04-22T14:07:48;18.58;;;10.52;;
44276;SDS011;29973;43.742;1.236;2023-04-22T14:10:14;18.00;;;9.35;;
44276;SDS011;29973;43.742;1.236;2023-04-22T14:12:44;19.48;;;8.57;;
44276;SDS011;29973;43.742;1.236;2023-04-22T14:15:10;16.15;;;8.48;;
44276;SDS011;29973;43.742;1.236;2023-04-22T14:17:36;12.77;;;7.88;;
44276;SDS011;29973;43.742;1.236;2023-04-22T14:20:02;22.50;;;8.55;;
44276;SDS011;29973;43.742;1.236;2023-04-22T14:22:29;14.98;;;7.95;;
44276;SDS011;29973;43.742;1.236;2023-04-22T14:24:55;18.23;;;8.48;;
44276;SDS011;29973;43.742;1.236;2023-04-22T14:27:21;16.05;;;8.80;;
44276;SDS011;29973;43.742;1.236;2023-04-22T14:29:47;21.30;;;9.77;;
44276;SDS011;29973;43.742;1.236;2023-04-22T14:32:16;23.20;;;9.90;;
44276;SDS011;29973;43.742;1.236;2023-04-22T14:34:45;19.80;;;9.68;;
44276;SDS011;29973;43.742;1.236;2023-04-22T14:37:11;19.38;;;9.63;;
44276;SDS011;29973;43.742;1.236;2023-04-22T14:39:37;19.88;;;10.05;;
44276;SDS011;29973;43.742;1.236;2023-04-22T14:42:03;13.07;;;9.30;;
44276;SDS011;29973;43.742;1.236;2023-04-22T14:44:29;16.17;;;9.68;;
44276;SDS011;29973;43.742;1.236;2023-04-22T14:46:55;15.65;;;8.68;;
44276;SDS011;29973;43.742;1.236;2023-04-22T14:49:20;15.10;;;9.50;;
44276;SDS011;29973;43.742;1.236;2023-04-22T14:51:46;17.70;;;8.30;;
44276;SDS011;29973;43.742;1.236;2023-04-22T14:54:13;16.75;;;8.30;;